createdAt,value
2023-03-23T15:59:56.628Z,28.62
2023-03-23T16:03:02.204Z,28.30
2023-03-23T16:06:12.018Z,29.84
2023-03-23T16:09:20.949Z,28.42
2023-03-23T16:12:25.008Z,29.07
2023-03-23T16:15:27.850Z,30.25
2023-03-23T16:18:32.633Z,31.32
2023-03-23T16:21:35.740Z,31.64
2023-03-23T16:24:38.870Z,32.47
2023-03-23T16:27:42.438Z,33.85
2023-03-23T16:30:46.694Z,34.29
2023-03-23T16:33:49.582Z,34.59
2023-03-23T16:36:53.074Z,35.13
2023-03-23T16:39:55.917Z,35.64
2023-03-23T16:43:00.666Z,36.16
2023-03-23T16:46:03.553Z,36.66
2023-03-23T16:49:06.713Z,37.98
2023-03-23T16:52:10.230Z,38.91
2023-03-23T16:55:13.582Z,39.82
2023-03-23T16:58:18.231Z,40.49
2023-03-23T17:01:21.321Z,41.42
2023-03-23T17:04:26.244Z,42.28
2023-03-23T17:07:29.310Z,43.27
2023-03-23T17:10:32.556Z,44.25
2023-03-23T17:13:35.781Z,45.09
2023-03-23T17:16:40.347Z,45.10
2023-03-23T17:19:43.406Z,46.54
2023-03-23T17:22:47.257Z,46.79
2023-03-23T17:25:50.697Z,47.16
2023-03-23T17:28:54.665Z,48.80
2023-03-23T17:31:57.671Z,49.39
2023-03-23T17:35:00.965Z,49.63
2023-03-23T17:38:04.679Z,49.91
2023-03-23T17:41:08.381Z,49.70
2023-03-23T17:44:11.356Z,51.33
2023-03-23T17:47:15.911Z,51.55
2023-03-23T17:50:19.997Z,52.21
2023-03-23T17:53:22.811Z,52.86
2023-03-23T17:56:26.006Z,53.36
2023-03-23T17:59:29.778Z,54.13
2023-03-23T18:02:32.897Z,54.69
2023-03-23T18:05:39.848Z,55.09
2023-03-23T18:08:42.815Z,56.11
2023-03-23T18:11:46.683Z,56.45
2023-03-23T18:14:50.249Z,56.89
2023-03-23T18:17:54.557Z,57.38
2023-03-23T18:21:02.093Z,57.75
2023-03-23T18:24:09.300Z,58.59
2023-03-23T18:27:12.186Z,60.97
2023-03-23T18:30:15.868Z,60.88
2023-03-23T18:33:20.553Z,60.91
2023-03-23T18:36:26.576Z,60.97
2023-03-23T18:39:32.014Z,61.77
2023-03-23T18:42:35.247Z,61.92
2023-03-23T18:45:38.580Z,62.39
2023-03-23T18:48:42.133Z,62.40
2023-03-23T18:51:45.068Z,62.45
2023-03-23T18:54:48.511Z,62.67
2023-03-23T18:57:51.730Z,63.19
2023-03-23T19:00:57.501Z,63.48
2023-03-23T19:04:00.966Z,64.00
2023-03-23T19:07:13.376Z,64.05
2023-03-23T19:10:17.583Z,64.59
2023-03-23T19:13:21.019Z,65.35
2023-03-23T19:16:25.159Z,65.97
2023-03-23T19:19:28.556Z,66.40
2023-03-23T19:22:33.084Z,66.48
2023-03-23T19:25:36.742Z,66.22
2023-03-23T19:31:47.813Z,69.21
2023-03-23T19:34:51.398Z,69.79
2023-03-23T19:38:00.864Z,70.51
2023-03-23T19:41:05.815Z,70.68
2023-03-23T19:44:09.312Z,70.41
2023-03-23T19:47:12.732Z,70.05
2023-03-23T19:50:17.270Z,69.82
2023-03-23T19:53:20.809Z,69.72
2023-03-23T19:56:25.396Z,70.32
2023-03-23T19:59:29.000Z,70.58
2023-03-23T20:02:32.241Z,70.57
2023-03-23T20:05:36.322Z,70.67
2023-03-23T20:08:45.445Z,70.94
2023-03-23T20:11:50.219Z,71.57
2023-03-23T20:14:53.536Z,72.08
2023-03-23T20:18:01.152Z,71.94
2023-03-23T20:21:09.874Z,73.14
2023-03-23T20:24:13.290Z,73.39
2023-03-23T20:27:17.485Z,73.81
2023-03-23T20:30:20.675Z,73.13
2023-03-23T20:33:23.885Z,73.55
2023-03-23T20:36:30.083Z,74.27
2023-03-23T20:39:33.693Z,74.70
2023-03-23T20:42:36.677Z,75.06
2023-03-23T20:45:39.877Z,74.76
2023-03-23T20:48:43.006Z,75.96
2023-03-23T20:51:46.756Z,75.00
2023-03-23T20:54:51.206Z,76.17
2023-03-23T20:58:01.246Z,76.06
2023-03-23T21:01:05.752Z,75.46
2023-03-23T21:04:15.608Z,76.33
2023-03-23T21:07:23.337Z,75.39
2023-03-23T21:10:28.036Z,75.26
2023-03-23T21:13:31.733Z,76.62
2023-03-23T21:16:35.173Z,77.14
2023-03-23T21:19:38.494Z,76.96
2023-03-23T21:22:42.116Z,77.28
2023-03-23T21:25:45.730Z,78.88
2023-03-23T21:28:50.976Z,78.30
2023-03-23T21:32:05.259Z,77.75
2023-03-23T21:35:12.218Z,77.95
2023-03-23T21:38:15.191Z,78.43
2023-03-23T21:41:18.089Z,79.02
2023-03-23T21:44:27.039Z,79.88
2023-03-23T21:47:32.871Z,79.42
2023-03-23T21:50:37.882Z,79.21
2023-03-23T21:53:42.374Z,78.87
2023-03-23T21:56:45.192Z,79.19
2023-03-23T21:59:50.910Z,79.32
2023-03-23T22:02:53.975Z,79.76
2023-03-23T22:05:56.961Z,80.45
2023-03-23T22:12:10.136Z,80.74
2023-03-23T22:15:16.565Z,81.16
2023-03-23T22:18:19.311Z,80.72
2023-03-23T22:21:23.339Z,81.39
2023-03-23T22:24:26.461Z,82.25
2023-03-23T22:27:29.064Z,81.59
2023-03-23T22:30:33.345Z,82.07
2023-03-23T22:33:37.120Z,82.01
2023-03-23T22:36:41.376Z,81.86
2023-03-23T22:39:44.657Z,82.49
2023-03-23T22:42:47.427Z,82.47
2023-03-23T22:45:54.225Z,82.54
2023-03-23T22:48:57.091Z,82.29
2023-03-23T22:52:00.153Z,82.30
2023-03-23T22:55:04.825Z,83.56
2023-03-23T22:58:07.721Z,83.60
2023-03-23T23:01:14.022Z,83.94
2023-03-23T23:04:17.806Z,83.74
2023-03-23T23:07:21.729Z,83.43
2023-03-23T23:10:24.290Z,85.38
2023-03-23T23:13:27.817Z,88.32
2023-03-23T23:16:31.291Z,87.46
2023-03-23T23:19:34.016Z,85.64
2023-03-23T23:22:36.817Z,85.32
2023-03-23T23:25:39.644Z,86.23
2023-03-23T23:28:42.717Z,86.78
2023-03-23T23:31:47.624Z,86.30
2023-03-23T23:34:53.188Z,85.46
2023-03-23T23:37:55.932Z,85.25
2023-03-23T23:40:58.726Z,85.48
2023-03-23T23:44:01.860Z,87.88
2023-03-23T23:47:06.164Z,88.01
2023-03-23T23:50:11.773Z,86.88
